sensor_id;sensor_type;location;lat;lon;timestamp;pressure;altitude;pressure_sealevel;temperature;humidity
45813;BME280;31519;45.408;10.962;2023-11-18T00:01:33;101022.78;;;11.27;50.80
45813;BME280;31519;45.408;10.962;2023-11-18T00:04:02;101026.03;;;11.38;51.42
45813;BME280;31519;45.408;10.962;2023-11-18T00:06:30;101029.50;;;11.25;52.10
45813;BME280;31519;45.408;10.962;2023-11-18T00:08:58;101028.00;;;11.32;51.57
45813;BME280;31519;45.408;10.962;2023-11-18T00:11:26;101027.13;;;11.37;50.55
45813;BME280;31519;45.408;10.962;2023-11-18T00:13:55;101029.13;;;11.31;50.52
45813;BME280;31519;45.408;10.962;2023-11-18T00:16:23;101036.72;;;11.38;50.05
45813;BME280;31519;45.408;10.962;2023-11-18T00:18:52;101036.31;;;11.31;49.48
45813;BME280;31519;45.408;10.962;2023-11-18T00:21:21;101033.66;;;11.31;48.95
45813;BME280;31519;45.408;10.962;2023-11-18T00:23:50;101036.81;;;11.33;49.14
45813;BME280;31519;45.408;10.962;2023-11-18T00:26:18;101039.00;;;11.31;49.21
45813;BME280;31519;45.408;10.962;2023-11-18T00:28:50;101037.97;;;11.13;49.45
45813;BME280;31519;45.408;10.962;2023-11-18T00:31:18;101045.16;;;10.99;49.88
45813;BME280;31519;45.408;10.962;2023-11-18T00:33:46;101049.22;;;11.10;49.25
45813;BME280;31519;45.408;10.962;2023-11-18T00:36:14;101045.47;;;11.11;49.11
45813;BME280;31519;45.408;10.962;2023-11-18T00:38:43;101048.84;;;11.17;48.50
45813;BME280;31519;45.408;10.962;2023-11-18T00:41:11;101055.25;;;11.16;48.97
45813;BME280;31519;45.408;10.962;2023-11-18T00:43:40;101047.97;;;11.35;47.66
45813;BME280;31519;45.408;10.962;2023-11-18T00:46:08;101058.03;;;11.24;47.56
45813;BME280;31519;45.408;10.962;2023-11-18T00:48:38;101073.69;;;11.44;46.58
45813;BME280;31519;45.408;10.962;2023-11-18T00:51:06;101070.91;;;11.36;46.76
45813;BME280;31519;45.408;10.962;2023-11-18T00:53:35;101083.44;;;11.35;47.07
45813;BME280;31519;45.408;10.962;2023-11-18T00:56:04;101075.34;;;11.27;47.63
45813;BME280;31519;45.408;10.962;2023-11-18T00:58:36;101080.25;;;11.20;47.81
45813;BME280;31519;45.408;10.962;2023-11-18T01:01:08;101085.22;;;11.26;47.57
45813;BME280;31519;45.408;10.962;2023-11-18T01:03:36;101075.63;;;11.39;47.33
45813;BME280;31519;45.408;10.962;2023-11-18T01:06:06;101088.72;;;11.08;47.97
45813;BME280;31519;45.408;10.962;2023-11-18T01:08:35;101089.72;;;11.12;48.28
45813;BME280;31519;45.408;10.962;2023-11-18T01:11:03;101084.84;;;11.00;48.94
45813;BME280;31519;45.408;10.962;2023-11-18T01:13:34;101092.44;;;10.93;48.90
45813;BME280;31519;45.408;10.962;2023-11-18T01:16:03;101089.03;;;11.20;47.42
45813;BME280;31519;45.408;10.962;2023-11-18T01:18:32;101086.09;;;11.22;46.94
45813;BME280;31519;45.408;10.962;2023-11-18T01:21:01;101085.13;;;11.31;46.76
45813;BME280;31519;45.408;10.962;2023-11-18T01:23:30;101088.88;;;11.44;46.82
45813;BME280;31519;45.408;10.962;2023-11-18T01:25:58;101091.34;;;11.40;46.72
45813;BME280;31519;45.408;10.962;2023-11-18T01:28:27;101086.03;;;11.40;46.65
45813;BME280;31519;45.408;10.962;2023-11-18T01:30:57;101096.59;;;11.32;46.31
45813;BME280;31519;45.408;10.962;2023-11-18T01:33:25;101104.28;;;11.33;46.82
45813;BME280;31519;45.408;10.962;2023-11-18T01:35:54;101099.16;;;11.04;47.16
45813;BME280;31519;45.408;10.962;2023-11-18T01:38:23;101109.34;;;11.02;46.76
45813;BME280;31519;45.408;10.962;2023-11-18T01:40:53;101117.69;;;10.96;47.18
45813;BME280;31519;45.408;10.962;2023-11-18T01:43:23;101117.22;;;10.94;47.25
45813;BME280;31519;45.408;10.962;2023-11-18T01:45:51;101117.50;;;10.74;47.93
45813;BME280;31519;45.408;10.962;2023-11-18T01:48:21;101122.03;;;10.73;48.03
45813;BME280;31519;45.408;10.962;2023-11-18T01:50:51;101109.38;;;10.84;47.76
45813;BME280;31519;45.408;10.962;2023-11-18T01:53:19;101104.91;;;10.79;48.10
45813;BME280;31519;45.408;10.962;2023-11-18T01:55:47;101100.84;;;10.82;48.36
45813;BME280;31519;45.408;10.962;2023-11-18T01:58:17;101109.50;;;10.74;48.89
45813;BME280;31519;45.408;10.962;2023-11-18T02:00:47;101102.75;;;10.81;48.44
45813;BME280;31519;45.408;10.962;2023-11-18T02:03:16;101118.88;;;10.71;49.35
45813;BME280;31519;45.408;10.962;2023-11-18T02:05:44;101122.03;;;10.73;49.50
45813;BME280;31519;45.408;10.962;2023-11-18T02:08:13;101136.81;;;10.65;49.61
45813;BME280;31519;45.408;10.962;2023-11-18T02:11:13;101126.81;;;10.57;49.57
45813;BME280;31519;45.408;10.962;2023-11-18T02:13:48;101131.63;;;10.74;49.34
45813;BME280;31519;45.408;10.962;2023-11-18T02:16:16;101131.13;;;10.72;49.88
45813;BME280;31519;45.408;10.962;2023-11-18T02:18:47;101132.88;;;10.63;49.65
45813;BME280;31519;45.408;10.962;2023-11-18T02:21:17;101140.69;;;10.73;49.84
45813;BME280;31519;45.408;10.962;2023-11-18T02:23:48;101141.78;;;10.53;50.17
45813;BME280;31519;45.408;10.962;2023-11-18T02:26:23;101136.47;;;10.53;50.51
45813;BME280;31519;45.408;10.962;2023-11-18T02:28:51;101135.09;;;10.56;50.81
45813;BME280;31519;45.408;10.962;2023-11-18T02:31:33;101138.03;;;10.54;50.56
45813;BME280;31519;45.408;10.962;2023-11-18T02:34:12;101137.38;;;10.44;51.39
45813;BME280;31519;45.408;10.962;2023-11-18T02:36:48;101130.25;;;10.39;51.49
45813;BME280;31519;45.408;10.962;2023-11-18T02:39:29;101131.84;;;10.59;50.68
45813;BME280;31519;45.408;10.962;2023-11-18T02:42:01;101143.03;;;10.18;51.22
45813;BME280;31519;45.408;10.962;2023-11-18T02:44:30;101143.75;;;10.24;51.24
45813;BME280;31519;45.408;10.962;2023-11-18T02:47:00;101156.75;;;10.31;51.55
45813;BME280;31519;45.408;10.962;2023-11-18T02:49:29;101152.03;;;10.22;52.57
45813;BME280;31519;45.408;10.962;2023-11-18T02:51:57;101151.91;;;10.09;53.09
45813;BME280;31519;45.408;10.962;2023-11-18T02:54:26;101151.03;;;10.13;53.58
45813;BME280;31519;45.408;10.962;2023-11-18T02:56:54;101150.56;;;10.11;53.61
45813;BME280;31519;45.408;10.962;2023-11-18T02:59:23;101150.81;;;9.86;54.56
45813;BME280;31519;45.408;10.962;2023-11-18T03:01:54;101151.59;;;10.15;52.08
45813;BME280;31519;45.408;10.962;2023-11-18T03:04:24;101150.56;;;10.11;52.43
45813;BME280;31519;45.408;10.962;2023-11-18T03:06:52;101151.53;;;9.68;53.98
45813;BME280;31519;45.408;10.962;2023-11-18T03:09:20;101154.16;;;9.73;53.63
45813;BME280;31519;45.408;10.962;2023-11-18T03:11:48;101153.53;;;9.81;55.08
45813;BME280;31519;45.408;10.962;2023-11-18T03:14:19;101160.50;;;9.77;55.41
45813;BME280;31519;45.408;10.962;2023-11-18T03:16:47;101152.53;;;9.77;56.21
45813;BME280;31519;45.408;10.962;2023-11-18T03:19:15;101160.28;;;9.73;56.68
45813;BME280;31519;45.408;10.962;2023-11-18T03:21:44;101158.81;;;9.86;56.46
45813;BME280;31519;45.408;10.962;2023-11-18T03:24:12;101165.16;;;9.90;56.61
45813;BME280;31519;45.408;10.962;2023-11-18T03:26:40;101170.72;;;9.94;56.30
45813;BME280;31519;45.408;10.962;2023-11-18T03:29:08;101176.66;;;10.09;55.67
45813;BME280;31519;45.408;10.962;2023-11-18T03:31:38;101180.34;;;9.90;56.07
45813;BME280;31519;45.408;10.962;2023-11-18T03:34:07;101186.22;;;9.29;58.23
45813;BME280;31519;45.408;10.962;2023-11-18T03:36:35;101181.81;;;9.14;58.31
45813;BME280;31519;45.408;10.962;2023-11-18T03:39:03;101182.84;;;9.18;56.66
45813;BME280;31519;45.408;10.962;2023-11-18T03:41:32;101180.63;;;8.92;57.36
45813;BME280;31519;45.408;10.962;2023-11-18T03:44:00;101189.69;;;8.85;57.12
45813;BME280;31519;45.408;10.962;2023-11-18T03:46:28;101184.50;;;7.91;59.88
45813;BME280;31519;45.408;10.962;2023-11-18T03:49:02;101187.41;;;7.89;60.41
45813;BME280;31519;45.408;10.962;2023-11-18T03:51:31;101193.03;;;7.78;60.98
45813;BME280;31519;45.408;10.962;2023-11-18T03:53:59;101189.00;;;7.95;60.72
45813;BME280;31519;45.408;10.962;2023-11-18T03:56:27;101181.75;;;8.16;60.32
45813;BME280;31519;45.408;10.962;2023-11-18T03:58:56;101180.63;;;8.48;59.22
45813;BME280;31519;45.408;10.962;2023-11-18T04:01:25;101180.06;;;8.56;58.93
45813;BME280;31519;45.408;10.962;2023-11-18T04:03:56;101190.22;;;8.28;60.07
45813;BME280;31519;45.408;10.962;2023-11-18T04:06:25;101200.53;;;8.45;59.49
45813;BME280;31519;45.408;10.962;2023-11-18T04:08:53;101193.13;;;8.42;59.93
45813;BME280;31519;45.408;10.962;2023-11-18T04:11:22;101196.75;;;8.61;59.54
45813;BME280;31519;45.408;10.962;2023-11-18T04:13:50;101200.38;;;8.75;59.46
45813;BME280;31519;45.408;10.962;2023-11-18T04:16:18;101197.84;;;8.50;60.31
45813;BME280;31519;45.408;10.962;2023-11-18T04:18:47;101206.06;;;8.54;60.48
45813;BME280;31519;45.408;10.962;2023-11-18T04:21:15;101197.84;;;8.55;60.37
45813;BME280;31519;45.408;10.962;2023-11-18T04:23:43;101199.94;;;8.58;60.20
45813;BME280;31519;45.408;10.962;2023-11-18T04:26:14;101203.38;;;8.59;60.82
45813;BME280;31519;45.408;10.962;2023-11-18T04:28:42;101209.94;;;8.76;60.88
45813;BME280;31519;45.408;10.962;2023-11-18T04:31:10;101213.50;;;9.06;60.44
45813;BME280;31519;45.408;10.962;2023-11-18T04:33:39;101212.22;;;8.98;60.62
45813;BME280;31519;45.408;10.962;2023-11-18T04:36:09;101210.63;;;8.97;60.26
45813;BME280;31519;45.408;10.962;2023-11-18T04:38:38;101223.16;;;8.92;60.37
45813;BME280;31519;45.408;10.962;2023-11-18T04:41:06;101220.53;;;8.81;60.31
45813;BME280;31519;45.408;10.962;2023-11-18T04:43:34;101215.06;;;8.63;60.77
45813;BME280;31519;45.408;10.962;2023-11-18T04:46:13;101215.06;;;8.63;61.22
45813;BME280;31519;45.408;10.962;2023-11-18T04:48:42;101214.75;;;8.74;61.27
45813;BME280;31519;45.408;10.962;2023-11-18T04:51:11;101215.25;;;8.76;61.18
45813;BME280;31519;45.408;10.962;2023-11-18T04:53:40;101211.06;;;8.65;61.79
45813;BME280;31519;45.408;10.962;2023-11-18T04:56:08;101212.41;;;8.63;61.94
45813;BME280;31519;45.408;10.962;2023-11-18T04:58:38;101213.94;;;8.74;62.23
45813;BME280;31519;45.408;10.962;2023-11-18T05:01:08;101223.69;;;8.19;65.12
45813;BME280;31519;45.408;10.962;2023-11-18T05:03:36;101215.97;;;8.38;65.05
45813;BME280;31519;45.408;10.962;2023-11-18T05:06:05;101219.38;;;8.49;63.76
45813;BME280;31519;45.408;10.962;2023-11-18T05:08:33;101203.50;;;8.38;63.97
45813;BME280;31519;45.408;10.962;2023-11-18T05:11:02;101198.91;;;8.49;63.44
45813;BME280;31519;45.408;10.962;2023-11-18T05:13:32;101201.53;;;8.59;63.41
45813;BME280;31519;45.408;10.962;2023-11-18T05:16:02;101205.47;;;8.67;64.22
45813;BME280;31519;45.408;10.962;2023-11-18T05:18:31;101206.50;;;8.71;63.04
45813;BME280;31519;45.408;10.962;2023-11-18T05:21:04;101203.94;;;8.56;62.89
45813;BME280;31519;45.408;10.962;2023-11-18T05:23:36;101202.19;;;8.31;63.84
45813;BME280;31519;45.408;10.962;2023-11-18T05:26:04;101199.22;;;8.42;63.80
45813;BME280;31519;45.408;10.962;2023-11-18T05:28:33;101205.53;;;8.57;64.55
45813;BME280;31519;45.408;10.962;2023-11-18T05:31:02;101213.00;;;8.50;65.44
45813;BME280;31519;45.408;10.962;2023-11-18T05:33:31;101213.75;;;8.60;65.64
45813;BME280;31519;45.408;10.962;2023-11-18T05:36:03;101222.53;;;8.61;64.77
45813;BME280;31519;45.408;10.962;2023-11-18T05:38:33;101223.03;;;8.58;64.05
45813;BME280;31519;45.408;10.962;2023-11-18T05:41:03;101222.03;;;8.49;63.96
45813;BME280;31519;45.408;10.962;2023-11-18T05:43:34;101219.44;;;8.38;64.83
45813;BME280;31519;45.408;10.962;2023-11-18T05:46:09;101225.53;;;8.24;66.06
45813;BME280;31519;45.408;10.962;2023-11-18T05:48:52;101230.06;;;8.33;66.08
45813;BME280;31519;45.408;10.962;2023-11-18T05:51:23;101232.47;;;8.10;66.52
45813;BME280;31519;45.408;10.962;2023-11-18T05:53:52;101240.69;;;8.18;67.11
45813;BME280;31519;45.408;10.962;2023-11-18T05:56:21;101240.69;;;8.18;67.81
45813;BME280;31519;45.408;10.962;2023-11-18T05:58:51;101241.97;;;8.21;66.98
45813;BME280;31519;45.408;10.962;2023-11-18T06:01:24;101247.31;;;8.31;67.42
45813;BME280;31519;45.408;10.962;2023-11-18T06:03:55;101249.69;;;8.22;67.74
45813;BME280;31519;45.408;10.962;2023-11-18T06:06:25;101245.97;;;8.33;67.88
45813;BME280;31519;45.408;10.962;2023-11-18T06:08:53;101255.00;;;8.32;66.91
45813;BME280;31519;45.408;10.962;2023-11-18T06:11:22;101256.81;;;8.47;66.90
45813;BME280;31519;45.408;10.962;2023-11-18T06:13:52;101260.00;;;8.49;66.29
45813;BME280;31519;45.408;10.962;2023-11-18T06:16:22;101268.75;;;8.50;65.91
45813;BME280;31519;45.408;10.962;2023-11-18T06:18:57;101273.00;;;8.45;66.14
45813;BME280;31519;45.408;10.962;2023-11-18T06:21:27;101265.59;;;8.48;65.87
45813;BME280;31519;45.408;10.962;2023-11-18T06:24:00;101276.69;;;8.55;65.42
45813;BME280;31519;45.408;10.962;2023-11-18T06:26:28;101282.03;;;8.50;65.43
45813;BME280;31519;45.408;10.962;2023-11-18T06:28:57;101272.47;;;8.43;65.68
45813;BME280;31519;45.408;10.962;2023-11-18T06:31:27;101279.31;;;8.65;64.91
45813;BME280;31519;45.408;10.962;2023-11-18T06:33:57;101274.28;;;8.58;64.78
45813;BME280;31519;45.408;10.962;2023-11-18T06:36:25;101271.06;;;8.66;64.46
45813;BME280;31519;45.408;10.962;2023-11-18T06:38:54;101271.38;;;8.55;65.12
45813;BME280;31519;45.408;10.962;2023-11-18T06:41:24;101270.34;;;8.51;65.07
45813;BME280;31519;45.408;10.962;2023-11-18T06:43:54;101268.72;;;8.60;65.21
45813;BME280;31519;45.408;10.962;2023-11-18T06:46:23;101265.94;;;8.85;64.58
45813;BME280;31519;45.408;10.962;2023-11-18T06:48:53;101262.03;;;8.72;64.96
45813;BME280;31519;45.408;10.962;2023-11-18T06:51:23;101266.75;;;8.80;64.75
45813;BME280;31519;45.408;10.962;2023-11-18T06:53:52;101263.53;;;8.94;65.05
45813;BME280;31519;45.408;10.962;2023-11-18T06:56:24;101264.25;;;9.04;65.30
45813;BME280;31519;45.408;10.962;2023-11-18T06:58:55;101275.44;;;9.01;64.97
45813;BME280;31519;45.408;10.962;2023-11-18T07:01:24;101279.31;;;9.19;64.47
45813;BME280;31519;45.408;10.962;2023-11-18T07:03:52;101292.13;;;9.51;63.58
45813;BME280;31519;45.408;10.962;2023-11-18T07:06:21;101285.69;;;9.62;62.72
45813;BME280;31519;45.408;10.962;2023-11-18T07:08:51;101292.31;;;9.64;63.50
45813;BME280;31519;45.408;10.962;2023-11-18T07:11:19;101304.16;;;9.77;62.29
45813;BME280;31519;45.408;10.962;2023-11-18T07:13:50;101297.81;;;9.73;62.48
45813;BME280;31519;45.408;10.962;2023-11-18T07:20:17;101301.66;;;12.17;56.68
45813;BME280;31519;45.408;10.962;2023-11-18T07:22:46;101302.53;;;13.44;49.77
45813;BME280;31519;45.408;10.962;2023-11-18T07:25:14;101303.44;;;14.06;46.87
45813;BME280;31519;45.408;10.962;2023-11-18T07:27:42;101312.47;;;14.89;45.86
45813;BME280;31519;45.408;10.962;2023-11-18T07:30:11;101309.66;;;14.54;46.38
45813;BME280;31519;45.408;10.962;2023-11-18T07:32:39;101311.81;;;13.38;48.99
45813;BME280;31519;45.408;10.962;2023-11-18T07:35:08;101316.13;;;12.43;51.81
45813;BME280;31519;45.408;10.962;2023-11-18T07:37:37;101313.34;;;12.21;53.26
45813;BME280;31519;45.408;10.962;2023-11-18T07:40:06;101323.91;;;12.12;52.84
45813;BME280;31519;45.408;10.962;2023-11-18T07:42:36;101319.84;;;12.28;52.62
45813;BME280;31519;45.408;10.962;2023-11-18T07:45:05;101321.47;;;12.43;52.02
45813;BME280;31519;45.408;10.962;2023-11-18T07:47:46;101328.41;;;12.58;52.00
45813;BME280;31519;45.408;10.962;2023-11-18T07:50:18;101325.25;;;12.69;51.82
45813;BME280;31519;45.408;10.962;2023-11-18T07:52:49;101322.56;;;12.97;50.76
45813;BME280;31519;45.408;10.962;2023-11-18T07:55:18;101318.50;;;13.13;50.27
45813;BME280;31519;45.408;10.962;2023-11-18T07:57:46;101314.47;;;13.38;49.38
45813;BME280;31519;45.408;10.962;2023-11-18T08:00:15;101311.88;;;13.46;49.23
45813;BME280;31519;45.408;10.962;2023-11-18T08:02:43;101316.72;;;13.66;48.95
45813;BME280;31519;45.408;10.962;2023-11-18T08:05:12;101315.50;;;13.95;48.46
45813;BME280;31519;45.408;10.962;2023-11-18T08:07:47;101320.19;;;13.89;48.37
45813;BME280;31519;45.408;10.962;2023-11-18T08:10:15;101336.91;;;14.17;48.33
45813;BME280;31519;45.408;10.962;2023-11-18T08:12:47;101341.16;;;14.40;47.40
45813;BME280;31519;45.408;10.962;2023-11-18T08:15:16;101343.28;;;14.60;46.63
45813;BME280;31519;45.408;10.962;2023-11-18T08:17:44;101346.56;;;14.97;45.41
45813;BME280;31519;45.408;10.962;2023-11-18T08:20:13;101359.22;;;15.14;44.96
45813;BME280;31519;45.408;10.962;2023-11-18T08:22:44;101349.63;;;15.38;44.00
45813;BME280;31519;45.408;10.962;2023-11-18T08:25:13;101350.88;;;15.49;43.66
45813;BME280;31519;45.408;10.962;2023-11-18T08:27:43;101347.59;;;15.61;43.43
45813;BME280;31519;45.408;10.962;2023-11-18T08:30:14;101354.38;;;15.93;42.64
45813;BME280;31519;45.408;10.962;2023-11-18T08:32:43;101346.94;;;15.90;42.48
45813;BME280;31519;45.408;10.962;2023-11-18T08:35:12;101347.88;;;15.77;42.25
45813;BME280;31519;45.408;10.962;2023-11-18T08:37:43;101347.53;;;15.35;41.55
45813;BME280;31519;45.408;10.962;2023-11-18T08:40:12;101355.44;;;15.23;42.15
45813;BME280;31519;45.408;10.962;2023-11-18T08:42:44;101343.09;;;15.05;42.82
45813;BME280;31519;45.408;10.962;2023-11-18T08:45:20;101348.47;;;15.14;42.10
45813;BME280;31519;45.408;10.962;2023-11-18T08:47:56;101350.56;;;15.17;41.89
45813;BME280;31519;45.408;10.962;2023-11-18T08:50:25;101354.31;;;15.07;42.18
45813;BME280;31519;45.408;10.962;2023-11-18T08:52:55;101354.38;;;14.76;41.21
45813;BME280;31519;45.408;10.962;2023-11-18T08:55:28;101352.63;;;14.72;41.46
45813;BME280;31519;45.408;10.962;2023-11-18T08:58:12;101353.06;;;15.22;40.27
45813;BME280;31519;45.408;10.962;2023-11-18T09:00:53;101358.94;;;15.49;39.27
45813;BME280;31519;45.408;10.962;2023-11-18T09:03:24;101362.75;;;15.74;39.05
45813;BME280;31519;45.408;10.962;2023-11-18T09:05:58;101364.22;;;16.27;39.76
45813;BME280;31519;45.408;10.962;2023-11-18T09:08:29;101365.63;;;16.41;38.99
45813;BME280;31519;45.408;10.962;2023-11-18T09:11:08;101367.34;;;16.46;39.00
45813;BME280;31519;45.408;10.962;2023-11-18T09:13:39;101377.59;;;16.61;39.22
45813;BME280;31519;45.408;10.962;2023-11-18T09:16:08;101382.50;;;16.59;39.82
45813;BME280;31519;45.408;10.962;2023-11-18T09:18:40;101385.38;;;16.92;40.24
45813;BME280;31519;45.408;10.962;2023-11-18T09:21:11;101376.75;;;16.31;42.09
45813;BME280;31519;45.408;10.962;2023-11-18T09:23:44;101376.06;;;16.90;41.67
45813;BME280;31519;45.408;10.962;2023-11-18T09:26:13;101371.66;;;17.35;40.39
45813;BME280;31519;45.408;10.962;2023-11-18T09:28:43;101371.44;;;17.19;40.63
45813;BME280;31519;45.408;10.962;2023-11-18T09:31:14;101372.50;;;16.77;41.63
45813;BME280;31519;45.408;10.962;2023-11-18T09:33:42;101378.38;;;17.50;39.84
45813;BME280;31519;45.408;10.962;2023-11-18T09:36:20;101378.41;;;16.62;42.13
45813;BME280;31519;45.408;10.962;2023-11-18T09:38:51;101382.69;;;16.46;41.90
45813;BME280;31519;45.408;10.962;2023-11-18T09:41:23;101377.41;;;17.04;41.93
45813;BME280;31519;45.408;10.962;2023-11-18T09:43:56;101372.66;;;17.72;40.60
45813;BME280;31519;45.408;10.962;2023-11-18T09:46:26;101385.25;;;18.01;40.18
45813;BME280;31519;45.408;10.962;2023-11-18T09:49:10;101395.75;;;18.14;39.97
45813;BME280;31519;45.408;10.962;2023-11-18T09:51:44;101395.28;;;18.25;40.50
45813;BME280;31519;45.408;10.962;2023-11-18T09:57:16;101400.44;;;17.85;41.64
45813;BME280;31519;45.408;10.962;2023-11-18T10:00:00;101412.06;;;18.87;40.34
45813;BME280;31519;45.408;10.962;2023-11-18T10:02:39;101411.97;;;18.96;38.95
45813;BME280;31519;45.408;10.962;2023-11-18T10:05:09;101406.06;;;19.30;37.31
45813;BME280;31519;45.408;10.962;2023-11-18T10:07:43;101395.50;;;19.13;37.03
45813;BME280;31519;45.408;10.962;2023-11-18T10:10:13;101386.16;;;18.50;37.31
45813;BME280;31519;45.408;10.962;2023-11-18T10:12:46;101370.66;;;18.59;35.57
45813;BME280;31519;45.408;10.962;2023-11-18T10:15:21;101362.03;;;18.78;36.06
45813;BME280;31519;45.408;10.962;2023-11-18T10:17:53;101347.38;;;19.15;34.33
45813;BME280;31519;45.408;10.962;2023-11-18T10:20:44;101359.00;;;19.83;33.72
45813;BME280;31519;45.408;10.962;2023-11-18T10:23:14;101354.72;;;19.42;34.62
45813;BME280;31519;45.408;10.962;2023-11-18T10:25:49;101360.34;;;18.73;34.25
45813;BME280;31519;45.408;10.962;2023-11-18T10:28:34;101367.97;;;18.95;34.00
45813;BME280;31519;45.408;10.962;2023-11-18T10:31:08;101356.72;;;18.81;34.44
45813;BME280;31519;45.408;10.962;2023-11-18T10:33:39;101348.50;;;18.90;33.87
45813;BME280;31519;45.408;10.962;2023-11-18T10:36:21;101351.31;;;19.58;34.15
45813;BME280;31519;45.408;10.962;2023-11-18T10:38:53;101352.28;;;20.37;33.88
45813;BME280;31519;45.408;10.962;2023-11-18T10:41:24;101363.53;;;19.67;33.35
45813;BME280;31519;45.408;10.962;2023-11-18T10:44:05;101366.06;;;20.04;34.17
45813;BME280;31519;45.408;10.962;2023-11-18T10:46:35;101361.53;;;19.92;32.88
45813;BME280;31519;45.408;10.962;2023-11-18T10:49:05;101356.94;;;19.00;34.51
45813;BME280;31519;45.408;10.962;2023-11-18T10:51:38;101350.97;;;19.59;34.61
45813;BME280;31519;45.408;10.962;2023-11-18T10:54:08;101352.88;;;19.86;34.93
45813;BME280;31519;45.408;10.962;2023-11-18T10:56:50;101354.31;;;19.28;36.18
45813;BME280;31519;45.408;10.962;2023-11-18T10:59:18;101356.63;;;18.78;36.78
45813;BME280;31519;45.408;10.962;2023-11-18T11:01:47;101365.16;;;18.92;35.46
45813;BME280;31519;45.408;10.962;2023-11-18T11:04:18;101369.53;;;19.09;34.75
45813;BME280;31519;45.408;10.962;2023-11-18T11:06:50;101373.19;;;19.40;34.16
45813;BME280;31519;45.408;10.962;2023-11-18T11:09:25;101371.00;;;19.70;32.39
45813;BME280;31519;45.408;10.962;2023-11-18T11:11:58;101371.06;;;19.22;33.75
45813;BME280;31519;45.408;10.962;2023-11-18T11:14:34;101380.16;;;19.41;32.20
45813;BME280;31519;45.408;10.962;2023-11-18T11:17:13;101380.78;;;19.63;31.77
45813;BME280;31519;45.408;10.962;2023-11-18T11:20:00;101370.63;;;20.43;30.87
45813;BME280;31519;45.408;10.962;2023-11-18T11:25:42;101352.72;;;21.20;29.86
45813;BME280;31519;45.408;10.962;2023-11-18T11:28:19;101353.06;;;20.37;30.79
45813;BME280;31519;45.408;10.962;2023-11-18T11:31:26;101348.97;;;20.00;30.19
45813;BME280;31519;45.408;10.962;2023-11-18T11:34:06;101345.91;;;20.60;30.51
45813;BME280;31519;45.408;10.962;2023-11-18T11:36:42;101345.88;;;21.65;28.89
45813;BME280;31519;45.408;10.962;2023-11-18T11:39:10;101348.28;;;21.70;28.79
45813;BME280;31519;45.408;10.962;2023-11-18T11:41:50;101341.25;;;21.65;29.38
45813;BME280;31519;45.408;10.962;2023-11-18T11:44:19;101329.03;;;21.94;28.56
45813;BME280;31519;45.408;10.962;2023-11-18T11:46:48;101336.31;;;21.33;29.65
45813;BME280;31519;45.408;10.962;2023-11-18T11:49:24;101346.06;;;22.86;27.90
45813;BME280;31519;45.408;10.962;2023-11-18T11:52:14;101355.34;;;21.17;28.76
45813;BME280;31519;45.408;10.962;2023-11-18T11:55:09;101349.16;;;21.74;28.63
45813;BME280;31519;45.408;10.962;2023-11-18T11:57:41;101344.03;;;22.34;27.51
45813;BME280;31519;45.408;10.962;2023-11-18T12:00:13;101338.09;;;21.63;28.23
45813;BME280;31519;45.408;10.962;2023-11-18T12:02:49;101345.91;;;20.60;29.39
45813;BME280;31519;45.408;10.962;2023-11-18T12:05:18;101340.09;;;21.86;27.90
45813;BME280;31519;45.408;10.962;2023-11-18T12:07:56;101351.41;;;22.10;27.71
45813;BME280;31519;45.408;10.962;2023-11-18T12:10:31;101349.16;;;22.62;26.11
45813;BME280;31519;45.408;10.962;2023-11-18T12:13:09;101348.56;;;22.26;25.52
45813;BME280;31519;45.408;10.962;2023-11-18T12:15:54;101360.63;;;20.94;27.58
45813;BME280;31519;45.408;10.962;2023-11-18T12:18:25;101350.84;;;22.24;26.84
45813;BME280;31519;45.408;10.962;2023-11-18T12:20:55;101343.75;;;22.16;27.54
45813;BME280;31519;45.408;10.962;2023-11-18T12:23:24;101331.53;;;21.26;28.75
45813;BME280;31519;45.408;10.962;2023-11-18T12:25:54;101329.50;;;22.45;27.04
45813;BME280;31519;45.408;10.962;2023-11-18T12:28:30;101320.63;;;22.48;27.41
45813;BME280;31519;45.408;10.962;2023-11-18T12:31:04;101311.78;;;22.29;27.68
45813;BME280;31519;45.408;10.962;2023-11-18T12:41:38;101315.81;;;23.47;27.69
45813;BME280;31519;45.408;10.962;2023-11-18T12:44:24;101313.97;;;24.36;26.18
45813;BME280;31519;45.408;10.962;2023-11-18T12:47:01;101316.97;;;23.16;27.08
45813;BME280;31519;45.408;10.962;2023-11-18T12:49:49;101309.84;;;23.71;27.16
45813;BME280;31519;45.408;10.962;2023-11-18T12:52:23;101304.75;;;23.66;26.51
45813;BME280;31519;45.408;10.962;2023-11-18T12:54:52;101311.44;;;23.72;26.28
45813;BME280;31519;45.408;10.962;2023-11-18T12:57:27;101306.69;;;23.66;26.19
45813;BME280;31519;45.408;10.962;2023-11-18T12:59:59;101295.44;;;23.67;26.97
45813;BME280;31519;45.408;10.962;2023-11-18T13:02:31;101293.06;;;23.62;26.63
45813;BME280;31519;45.408;10.962;2023-11-18T13:05:05;101290.44;;;22.04;27.62
45813;BME280;31519;45.408;10.962;2023-11-18T13:07:33;101286.09;;;23.31;27.30
45813;BME280;31519;45.408;10.962;2023-11-18T13:10:04;101295.81;;;23.03;26.28
45813;BME280;31519;45.408;10.962;2023-11-18T13:12:33;101290.00;;;22.74;26.92
45813;BME280;31519;45.408;10.962;2023-11-18T13:15:02;101292.38;;;23.39;26.05
45813;BME280;31519;45.408;10.962;2023-11-18T13:17:31;101284.94;;;23.03;26.05
45813;BME280;31519;45.408;10.962;2023-11-18T13:20:11;101288.31;;;22.92;25.69
45813;BME280;31519;45.408;10.962;2023-11-18T13:22:42;101288.66;;;23.21;24.18